createdAt,value
2023-02-28T00:00:10.218Z,9.57
2023-02-28T00:02:36.802Z,10.77
2023-02-28T00:05:03.616Z,10.47
2023-02-28T00:07:30.801Z,12.57
2023-02-28T00:09:56.776Z,10.77
2023-02-28T00:12:23.128Z,10.63
2023-02-28T00:14:49.382Z,10.50
2023-02-28T00:17:15.266Z,9.40
2023-02-28T00:19:40.965Z,8.43
2023-02-28T00:22:06.771Z,8.20
2023-02-28T00:24:32.700Z,10.90
2023-02-28T00:26:58.544Z,14.63
2023-02-28T00:29:24.268Z,10.13
2023-02-28T00:31:49.985Z,7.90
2023-02-28T00:34:15.703Z,9.00
2023-02-28T00:36:45.607Z,7.27
2023-02-28T00:39:11.803Z,8.68
2023-02-28T00:41:37.554Z,9.03
2023-02-28T00:44:03.253Z,9.90
2023-02-28T00:46:29.095Z,11.00
2023-02-28T00:48:54.913Z,10.45
2023-02-28T00:51:20.642Z,10.27
2023-02-28T00:53:46.348Z,11.57
2023-02-28T00:56:12.137Z,9.85
2023-02-28T00:58:37.891Z,10.98
2023-02-28T01:01:03.801Z,8.93
2023-02-28T01:03:29.548Z,10.88
2023-02-28T01:05:55.312Z,7.70
2023-02-28T01:08:21.291Z,7.72
2023-02-28T01:10:47.105Z,10.23
2023-02-28T01:13:13.444Z,9.10
2023-02-28T01:15:42.033Z,8.55
2023-02-28T01:18:07.830Z,9.70
2023-02-28T01:20:33.604Z,8.95
2023-02-28T01:22:59.444Z,8.20
2023-02-28T01:25:25.417Z,9.27
2023-02-28T01:27:51.175Z,7.88
2023-02-28T01:30:16.979Z,9.27
2023-02-28T01:32:42.684Z,12.73
2023-02-28T01:35:08.597Z,11.73
2023-02-28T01:37:34.344Z,10.80
2023-02-28T01:40:00.046Z,7.47
2023-02-28T01:42:25.775Z,9.93
2023-02-28T01:44:57.238Z,8.02
2023-02-28T01:47:23.353Z,9.32
2023-02-28T01:49:49.835Z,10.37
2023-02-28T01:52:18.355Z,11.20
2023-02-28T01:54:47.692Z,8.53
2023-02-28T01:57:15.834Z,9.87
2023-02-28T01:59:49.328Z,8.70
2023-02-28T02:02:16.871Z,10.90
2023-02-28T02:04:46.702Z,7.07
2023-02-28T02:07:13.431Z,9.93
2023-02-28T02:09:39.144Z,9.13
2023-02-28T02:12:13.427Z,8.90
2023-02-28T02:14:48.605Z,9.57
2023-02-28T02:17:34.662Z,8.70
2023-02-28T02:20:02.105Z,8.30
2023-02-28T02:22:39.492Z,10.43
2023-02-28T02:25:05.189Z,8.20
2023-02-28T02:27:38.618Z,9.13
2023-02-28T02:30:22.938Z,11.70
2023-02-28T02:33:00.610Z,9.77
2023-02-28T02:35:40.209Z,10.13
2023-02-28T02:38:29.097Z,9.47
2023-02-28T02:41:33.415Z,8.83
2023-02-28T02:44:04.966Z,7.97
2023-02-28T02:46:34.333Z,7.90
2023-02-28T02:49:01.250Z,8.60
2023-02-28T02:51:27.996Z,10.57
2023-02-28T02:54:06.932Z,8.37
2023-02-28T02:56:33.730Z,11.27
2023-02-28T02:59:04.619Z,9.57
2023-02-28T03:01:31.698Z,7.97
2023-02-28T03:04:03.317Z,8.80
2023-02-28T03:06:29.117Z,12.23
2023-02-28T03:08:54.922Z,6.27
2023-02-28T03:11:20.982Z,8.93
2023-02-28T03:13:52.199Z,8.93
2023-02-28T03:16:23.913Z,11.07
2023-02-28T03:18:52.675Z,10.70
2023-02-28T03:21:24.261Z,7.43
2023-02-28T03:24:10.239Z,7.33
2023-02-28T03:26:39.112Z,8.40
2023-02-28T03:29:08.023Z,8.07
2023-02-28T03:31:37.854Z,11.20
2023-02-28T03:34:08.527Z,15.57
2023-02-28T03:36:44.110Z,9.13
2023-02-28T03:39:16.405Z,8.97
2023-02-28T03:41:48.090Z,13.40
2023-02-28T03:44:16.382Z,9.87
2023-02-28T03:46:53.244Z,10.30
2023-02-28T03:49:32.898Z,16.40
2023-02-28T03:52:01.128Z,9.60
2023-02-28T03:54:29.401Z,7.73
2023-02-28T03:57:18.243Z,8.17
2023-02-28T03:59:46.598Z,11.37
2023-02-28T04:02:12.926Z,12.43
2023-02-28T04:04:38.788Z,11.90
2023-02-28T04:07:08.641Z,12.30
2023-02-28T04:09:34.556Z,10.35
2023-02-28T04:12:00.280Z,10.77
2023-02-28T04:14:26.745Z,10.20
2023-02-28T04:16:52.789Z,9.60
2023-02-28T04:19:18.737Z,9.37
2023-02-28T04:21:45.733Z,11.40
2023-02-28T04:24:15.554Z,8.77
2023-02-28T04:26:43.922Z,9.68
2023-02-28T04:29:10.642Z,10.37
2023-02-28T04:31:36.482Z,13.17
2023-02-28T04:34:02.239Z,15.70
2023-02-28T04:36:28.019Z,11.97
2023-02-28T04:38:54.114Z,12.00
2023-02-28T04:41:20.243Z,11.53
2023-02-28T04:43:45.954Z,12.97
2023-02-28T04:46:12.403Z,9.97
2023-02-28T04:48:39.137Z,14.53
2023-02-28T04:51:06.039Z,12.60
2023-02-28T04:53:31.891Z,14.50
2023-02-28T04:55:57.722Z,14.93
2023-02-28T04:58:23.948Z,11.57
2023-02-28T05:00:50.229Z,10.57
2023-02-28T05:03:15.978Z,16.43
2023-02-28T05:05:41.733Z,10.03
2023-02-28T05:08:07.468Z,11.37
2023-02-28T05:10:33.266Z,15.93
2023-02-28T05:12:59.173Z,17.33
2023-02-28T05:15:24.926Z,10.97
2023-02-28T05:17:51.194Z,9.87
2023-02-28T05:20:17.447Z,14.90
2023-02-28T05:22:43.762Z,13.30
2023-02-28T05:25:13.858Z,12.87
2023-02-28T05:27:40.486Z,13.40
2023-02-28T05:30:06.814Z,14.93
2023-02-28T05:32:32.741Z,14.03
2023-02-28T05:34:58.536Z,13.13
2023-02-28T05:37:24.347Z,11.17
2023-02-28T05:39:50.601Z,14.43
2023-02-28T05:42:16.316Z,10.13
2023-02-28T05:44:43.550Z,11.60
2023-02-28T05:47:09.264Z,11.80
2023-02-28T05:49:35.021Z,11.80
2023-02-28T05:52:00.760Z,11.67
2023-02-28T05:54:26.547Z,11.20
2023-02-28T05:56:52.299Z,9.00
2023-02-28T05:59:18.231Z,10.73
2023-02-28T06:01:50.935Z,12.77
2023-02-28T06:04:30.700Z,13.87
2023-02-28T06:06:58.143Z,12.30
2023-02-28T06:09:24.042Z,16.67
2023-02-28T06:11:49.817Z,18.07
2023-02-28T06:14:17.095Z,15.27
2023-02-28T06:16:43.302Z,11.53
2023-02-28T06:19:09.553Z,12.10
2023-02-28T06:21:37.091Z,12.70
2023-02-28T06:24:03.676Z,10.40
2023-02-28T06:26:29.717Z,16.17
2023-02-28T06:28:55.815Z,15.27
2023-02-28T06:31:22.567Z,14.10
2023-02-28T06:33:58.156Z,12.97
2023-02-28T06:36:24.037Z,10.93
2023-02-28T06:38:55.314Z,11.13
2023-02-28T06:41:25.726Z,14.20
2023-02-28T06:43:51.963Z,11.85
2023-02-28T06:46:18.193Z,15.67
2023-02-28T06:48:46.250Z,18.23
2023-02-28T06:51:14.506Z,23.17
2023-02-28T06:53:41.053Z,16.60
2023-02-28T06:56:09.283Z,16.60
2023-02-28T06:58:35.673Z,11.23
2023-02-28T07:01:02.336Z,16.10
2023-02-28T07:03:37.215Z,12.57
2023-02-28T07:06:04.910Z,12.67
2023-02-28T07:08:32.256Z,12.77
2023-02-28T07:10:58.474Z,12.70
2023-02-28T07:13:25.616Z,11.80
2023-02-28T07:15:59.581Z,14.07
2023-02-28T07:18:25.674Z,13.57
2023-02-28T07:20:51.702Z,12.23
2023-02-28T07:23:17.814Z,11.47
2023-02-28T07:25:44.279Z,14.90
2023-02-28T07:28:11.267Z,14.47
2023-02-28T07:30:37.311Z,16.87
2023-02-28T07:33:04.081Z,16.80
2023-02-28T07:35:30.377Z,12.77
2023-02-28T07:37:58.368Z,16.30
2023-02-28T07:40:24.643Z,15.40
2023-02-28T07:42:51.371Z,11.17
2023-02-28T07:45:17.921Z,11.70
2023-02-28T07:47:44.129Z,14.67
2023-02-28T07:50:11.634Z,15.33
2023-02-28T07:52:38.503Z,12.40
2023-02-28T07:55:04.989Z,13.20
2023-02-28T07:57:30.855Z,14.23
2023-02-28T07:59:57.995Z,11.20
2023-02-28T08:02:23.816Z,16.50
2023-02-28T08:04:49.768Z,9.77
2023-02-28T08:07:16.426Z,9.53
2023-02-28T08:09:42.734Z,9.50
2023-02-28T08:12:09.650Z,11.97
2023-02-28T08:14:36.069Z,9.73
2023-02-28T08:17:01.925Z,12.63
2023-02-28T08:19:28.467Z,12.40
2023-02-28T08:21:54.643Z,8.33
2023-02-28T08:24:20.694Z,6.53
2023-02-28T08:26:46.543Z,6.93
2023-02-28T08:29:12.789Z,7.90
2023-02-28T08:31:38.727Z,6.40
2023-02-28T08:34:08.811Z,6.17
2023-02-28T08:36:34.707Z,6.35
2023-02-28T08:39:00.704Z,5.07
2023-02-28T08:41:28.946Z,7.13
2023-02-28T08:43:55.057Z,12.83
2023-02-28T08:46:21.334Z,5.87
2023-02-28T08:48:47.459Z,7.17
2023-02-28T08:51:16.575Z,11.87
2023-02-28T08:53:42.396Z,4.10
2023-02-28T08:56:12.487Z,4.87
2023-02-28T08:58:38.583Z,4.82
2023-02-28T09:01:14.114Z,6.47
2023-02-28T09:03:41.705Z,6.77
2023-02-28T09:06:07.992Z,9.07
2023-02-28T09:08:33.887Z,4.87
2023-02-28T09:11:02.257Z,4.78
2023-02-28T09:13:29.432Z,6.97
2023-02-28T09:15:57.934Z,5.38
2023-02-28T09:18:23.742Z,6.20
2023-02-28T09:20:50.668Z,5.57
2023-02-28T09:23:16.911Z,4.97
2023-02-28T09:25:50.064Z,4.38
2023-02-28T09:28:17.163Z,7.43
2023-02-28T09:30:45.192Z,2.58
2023-02-28T09:33:20.822Z,4.80
2023-02-28T09:35:47.310Z,5.18
2023-02-28T09:38:13.559Z,4.68
2023-02-28T09:41:00.561Z,3.22
2023-02-28T09:43:28.202Z,2.75
2023-02-28T09:46:04.087Z,2.50
2023-02-28T09:48:36.522Z,2.72
2023-02-28T09:51:10.090Z,4.93
2023-02-28T09:53:40.060Z,7.05
2023-02-28T09:56:19.001Z,3.10
2023-02-28T09:58:44.766Z,3.35
2023-02-28T10:01:19.784Z,5.50
2023-02-28T10:04:00.827Z,11.85
2023-02-28T10:06:28.762Z,5.40
2023-02-28T10:09:02.741Z,3.67
2023-02-28T10:11:29.752Z,2.97
2023-02-28T10:14:04.870Z,4.03
2023-02-28T10:16:34.019Z,5.55
2023-02-28T10:19:03.912Z,2.90
2023-02-28T10:21:37.394Z,2.15
2023-02-28T10:24:05.445Z,3.20
2023-02-28T10:26:33.986Z,2.97
2023-02-28T10:29:00.166Z,6.20
2023-02-28T10:31:26.922Z,3.55
2023-02-28T10:33:58.210Z,4.72
2023-02-28T10:36:24.793Z,4.78
2023-02-28T10:38:55.277Z,3.10
2023-02-28T10:41:28.988Z,5.60
2023-02-28T10:44:13.098Z,4.03
2023-02-28T10:46:40.438Z,4.22
2023-02-28T10:49:13.406Z,4.78
2023-02-28T10:51:40.524Z,2.78
2023-02-28T10:54:14.828Z,3.92
2023-02-28T10:56:40.643Z,4.68
2023-02-28T10:59:16.071Z,3.70
2023-02-28T11:01:45.160Z,3.78
2023-02-28T11:04:20.292Z,5.45
2023-02-28T11:06:46.924Z,4.32
2023-02-28T11:09:19.629Z,10.70
2023-02-28T11:11:47.063Z,4.15
2023-02-28T11:14:19.693Z,5.70
2023-02-28T11:16:46.125Z,3.58
2023-02-28T11:19:18.760Z,6.72
2023-02-28T11:21:48.603Z,4.28
2023-02-28T11:24:23.525Z,4.17
2023-02-28T11:26:53.965Z,14.55
2023-02-28T11:29:24.135Z,3.22
2023-02-28T11:35:16.648Z,7.53
2023-02-28T11:37:42.500Z,5.45
2023-02-28T11:40:28.542Z,4.20
2023-02-28T11:43:05.509Z,6.65
2023-02-28T11:45:43.324Z,4.35
2023-02-28T11:48:30.437Z,5.32
2023-02-28T11:51:15.080Z,3.92
2023-02-28T11:53:41.331Z,7.13
2023-02-28T11:56:11.938Z,9.00
2023-02-28T11:58:49.751Z,4.32
2023-02-28T12:01:22.161Z,3.80
2023-02-28T12:04:00.371Z,3.65
2023-02-28T12:06:27.098Z,5.35
2023-02-28T12:08:54.482Z,3.55
2023-02-28T12:11:34.309Z,6.43
2023-02-28T12:14:18.861Z,5.50
2023-02-28T12:16:56.320Z,7.05
2023-02-28T12:19:40.785Z,6.30
2023-02-28T12:22:20.208Z,5.55
2023-02-28T12:24:55.045Z,6.72
2023-02-28T12:27:24.023Z,5.65
2023-02-28T12:29:55.166Z,4.10
2023-02-28T12:32:27.977Z,3.20
2023-02-28T12:35:13.758Z,6.60
2023-02-28T12:37:44.013Z,4.28
2023-02-28T12:40:16.080Z,5.35
2023-02-28T12:42:44.735Z,7.85
2023-02-28T12:45:25.241Z,6.28
2023-02-28T12:48:05.196Z,4.72
2023-02-28T12:50:32.427Z,3.72
2023-02-28T12:53:06.037Z,5.60
2023-02-28T12:55:37.921Z,4.30
2023-02-28T12:58:24.646Z,8.15
2023-02-28T13:00:56.672Z,5.55
2023-02-28T13:03:51.966Z,3.65
2023-02-28T13:06:27.710Z,5.05
2023-02-28T13:09:00.522Z,3.92
2023-02-28T13:11:30.418Z,4.20
2023-02-28T13:14:00.507Z,6.00
2023-02-28T13:16:26.498Z,4.75
2023-02-28T13:19:02.876Z,4.78
2023-02-28T13:21:30.636Z,5.20
2023-02-28T13:24:00.317Z,7.25
2023-02-28T13:26:38.653Z,4.47
2023-02-28T13:29:11.075Z,5.82
2023-02-28T13:31:55.569Z,10.43
2023-02-28T13:34:21.791Z,10.35
2023-02-28T13:36:47.665Z,5.22
2023-02-28T13:39:33.289Z,10.23
2023-02-28T13:42:20.965Z,4.18
2023-02-28T13:45:02.223Z,3.20
2023-02-28T13:47:39.841Z,5.05
2023-02-28T13:50:20.267Z,4.57
2023-02-28T13:52:56.504Z,5.35
2023-02-28T13:55:30.278Z,6.57
2023-02-28T13:58:13.299Z,5.72
2023-02-28T14:00:58.472Z,4.32
2023-02-28T14:04:17.705Z,3.40
2023-02-28T14:09:39.964Z,5.05
2023-02-28T14:12:26.005Z,7.05
2023-02-28T14:14:52.970Z,4.72
2023-02-28T14:17:18.956Z,4.88
2023-02-28T14:19:46.905Z,4.97
2023-02-28T14:22:13.340Z,4.97
2023-02-28T14:24:43.401Z,5.05
2023-02-28T14:27:25.642Z,6.10
2023-02-28T14:32:44.286Z,8.57
2023-02-28T14:35:29.554Z,5.05
2023-02-28T14:37:55.933Z,5.85
2023-02-28T14:40:27.561Z,6.13
2023-02-28T14:42:58.964Z,5.22
2023-02-28T14:45:27.254Z,4.32
2023-02-28T14:47:53.490Z,5.13
2023-02-28T14:50:24.139Z,8.55
2023-02-28T14:52:53.982Z,4.82
2023-02-28T14:55:32.530Z,5.07
2023-02-28T14:58:00.322Z,9.65
2023-02-28T15:03:23.193Z,6.72
2023-02-28T15:05:53.857Z,4.65
2023-02-28T15:08:22.535Z,5.65
2023-02-28T15:10:53.446Z,8.77
2023-02-28T15:16:05.002Z,6.55
2023-02-28T15:18:32.419Z,6.55
2023-02-28T15:21:02.738Z,7.25
2023-02-28T15:23:30.686Z,6.13
2023-02-28T15:25:59.686Z,9.07
2023-02-28T15:28:26.369Z,6.90
2023-02-28T15:34:13.523Z,10.25
2023-02-28T15:36:39.425Z,7.97
2023-02-28T15:39:19.578Z,9.52
2023-02-28T15:41:46.752Z,7.35
2023-02-28T15:44:50.099Z,9.70
2023-02-28T15:47:22.362Z,7.03
2023-02-28T15:49:50.620Z,7.50
2023-02-28T15:52:28.983Z,5.72
2023-02-28T15:54:57.427Z,7.35
2023-02-28T15:57:25.320Z,6.05
2023-02-28T15:59:53.822Z,8.35
2023-02-28T16:02:22.512Z,6.97
2023-02-28T16:05:15.256Z,5.38
2023-02-28T16:07:42.319Z,6.97
2023-02-28T16:10:09.861Z,4.85
2023-02-28T16:12:36.869Z,6.30
2023-02-28T16:15:08.000Z,5.82
2023-02-28T16:20:19.926Z,5.82
2023-02-28T16:22:49.900Z,6.30
2023-02-28T16:25:16.997Z,6.13
2023-02-28T16:27:46.451Z,6.43
2023-02-28T16:30:21.222Z,11.95
2023-02-28T16:32:47.985Z,7.15
2023-02-28T16:35:19.589Z,5.72
2023-02-28T16:37:49.151Z,8.68
2023-02-28T16:46:10.829Z,7.30
2023-02-28T16:48:37.721Z,5.83
2023-02-28T16:51:04.778Z,9.05
2023-02-28T16:53:30.746Z,6.18
2023-02-28T16:55:56.705Z,5.18
2023-02-28T16:58:30.277Z,6.63
2023-02-28T17:00:57.419Z,5.40
2023-02-28T17:03:33.649Z,5.57
2023-02-28T17:06:01.181Z,6.47
2023-02-28T17:08:29.167Z,4.40
2023-02-28T17:13:37.144Z,7.72
2023-02-28T17:16:03.297Z,8.15
2023-02-28T17:18:34.439Z,8.43
2023-02-28T17:21:01.185Z,7.45
2023-02-28T17:23:27.140Z,10.18
2023-02-28T17:25:58.125Z,11.23
2023-02-28T17:28:24.322Z,11.60
2023-02-28T17:30:50.676Z,11.05
2023-02-28T17:34:04.083Z,11.00
2023-02-28T17:36:30.346Z,12.10
2023-02-28T17:38:56.883Z,11.45
2023-02-28T17:41:23.203Z,10.97
2023-02-28T17:43:51.717Z,15.43
2023-02-28T17:46:20.670Z,19.63
2023-02-28T17:48:50.443Z,19.27
2023-02-28T17:51:17.686Z,17.27
2023-02-28T17:53:43.854Z,18.57
2023-02-28T17:56:12.206Z,25.80
2023-02-28T17:58:38.003Z,18.33
2023-02-28T18:01:04.703Z,16.57
2023-02-28T18:03:40.390Z,14.97
2023-02-28T18:06:07.025Z,15.13
2023-02-28T18:08:36.045Z,23.77
2023-02-28T18:11:04.057Z,19.70
2023-02-28T18:13:30.283Z,17.87
2023-02-28T18:15:56.190Z,15.77
2023-02-28T18:21:04.510Z,13.25
2023-02-28T18:23:32.051Z,15.33
2023-02-28T18:26:01.230Z,13.03
2023-02-28T18:28:27.784Z,17.80
2023-02-28T18:30:53.992Z,18.50
2023-02-28T18:33:24.997Z,15.67
2023-02-28T18:35:55.039Z,13.47
2023-02-28T18:38:22.008Z,21.40
2023-02-28T18:40:55.699Z,13.17
2023-02-28T18:43:22.048Z,16.53
2023-02-28T18:45:47.819Z,13.23
2023-02-28T18:48:14.613Z,13.57
2023-02-28T18:50:41.687Z,13.30
2023-02-28T18:53:07.836Z,22.20
2023-02-28T18:55:33.669Z,14.43
2023-02-28T18:57:59.735Z,24.23
2023-02-28T19:00:25.870Z,10.27
2023-02-28T19:02:52.264Z,15.03
2023-02-28T19:05:18.684Z,10.83
2023-02-28T19:07:45.324Z,12.13
2023-02-28T19:10:11.535Z,10.73
2023-02-28T19:12:37.844Z,7.73
2023-02-28T19:15:04.430Z,9.07
2023-02-28T19:17:34.122Z,7.63
2023-02-28T19:19:59.941Z,8.73
2023-02-28T19:22:25.936Z,10.77
2023-02-28T19:24:52.016Z,10.03
2023-02-28T19:27:22.210Z,13.70
2023-02-28T19:29:49.230Z,8.00
2023-02-28T19:32:15.635Z,11.23
2023-02-28T19:34:42.217Z,11.80
2023-02-28T19:37:08.284Z,11.97
2023-02-28T19:39:40.636Z,12.03
2023-02-28T19:42:07.361Z,11.13
2023-02-28T19:44:33.147Z,18.23
2023-02-28T19:46:59.009Z,15.33
2023-02-28T19:49:25.993Z,15.57
2023-02-28T19:51:52.516Z,15.57
2023-02-28T19:54:18.318Z,12.87
2023-02-28T19:56:44.310Z,13.43
2023-02-28T19:59:21.043Z,10.57
2023-02-28T20:01:55.704Z,14.80
2023-02-28T20:04:25.634Z,17.60
2023-02-28T20:06:51.776Z,14.10
2023-02-28T20:09:19.798Z,16.53
2023-02-28T20:11:45.666Z,21.83
2023-02-28T20:14:13.001Z,12.97
2023-02-28T20:16:39.473Z,14.30
2023-02-28T20:19:05.658Z,16.20
2023-02-28T20:21:31.498Z,21.37
2023-02-28T20:23:57.280Z,18.57
2023-02-28T20:26:23.050Z,18.17
2023-02-28T20:28:50.123Z,17.83
2023-02-28T20:31:22.079Z,16.83
2023-02-28T20:33:57.158Z,22.73
2023-02-28T20:36:23.643Z,21.33
2023-02-28T20:38:50.888Z,22.73
2023-02-28T20:41:17.154Z,20.30
2023-02-28T20:43:43.177Z,19.30
2023-02-28T20:46:09.463Z,17.77
2023-02-28T20:48:37.547Z,19.23
2023-02-28T20:51:04.806Z,15.90
2023-02-28T20:53:31.126Z,25.23
2023-02-28T20:56:01.010Z,23.03
2023-02-28T20:58:28.196Z,21.25
2023-02-28T21:01:01.503Z,19.33
2023-02-28T21:03:27.370Z,18.20
2023-02-28T21:05:59.180Z,18.67
2023-02-28T21:08:24.973Z,28.83
2023-02-28T21:10:50.816Z,39.67
2023-02-28T21:13:16.543Z,41.67
2023-02-28T21:15:42.494Z,26.60
2023-02-28T21:18:08.847Z,16.90
2023-02-28T21:20:34.608Z,17.77
2023-02-28T21:23:00.368Z,20.43
2023-02-28T21:25:26.136Z,12.07
2023-02-28T21:27:54.873Z,13.70
2023-02-28T21:30:21.583Z,11.77
2023-02-28T21:32:47.377Z,15.60
2023-02-28T21:35:16.242Z,9.43
2023-02-28T21:37:43.432Z,11.17
2023-02-28T21:40:09.654Z,17.67
2023-02-28T21:42:35.455Z,14.83
2023-02-28T21:45:02.391Z,11.83
2023-02-28T21:47:29.508Z,16.20
2023-02-28T21:49:55.364Z,15.50
2023-02-28T21:52:21.393Z,19.20
2023-02-28T21:54:47.566Z,16.57
2023-02-28T21:57:15.408Z,10.93
2023-02-28T21:59:42.137Z,10.23
2023-02-28T22:02:10.045Z,13.90
2023-02-28T22:04:36.244Z,12.20
2023-02-28T22:07:02.525Z,16.80
2023-02-28T22:09:28.795Z,13.20
2023-02-28T22:11:54.958Z,10.40
2023-02-28T22:14:20.758Z,12.50
2023-02-28T22:16:52.412Z,12.00
2023-02-28T22:19:20.394Z,15.13
2023-02-28T22:21:46.834Z,13.60
2023-02-28T22:24:12.762Z,14.23
2023-02-28T22:26:38.572Z,13.73
2023-02-28T22:29:04.518Z,14.97
2023-02-28T22:31:31.969Z,13.67
2023-02-28T22:33:59.484Z,12.90
2023-02-28T22:36:25.650Z,16.43
2023-02-28T22:38:51.561Z,18.53
2023-02-28T22:41:18.714Z,21.83
2023-02-28T22:43:44.498Z,16.83
2023-02-28T22:46:11.832Z,18.13
2023-02-28T22:48:38.744Z,18.30
2023-02-28T22:51:06.144Z,18.17
2023-02-28T22:53:33.098Z,12.67
2023-02-28T22:55:58.929Z,19.10
2023-02-28T22:58:25.054Z,13.27
2023-02-28T23:00:54.110Z,17.20
2023-02-28T23:03:21.361Z,16.77
2023-02-28T23:05:47.356Z,14.27
2023-02-28T23:08:13.123Z,16.17
2023-02-28T23:10:42.831Z,18.13
2023-02-28T23:13:08.559Z,18.27
2023-02-28T23:15:34.303Z,17.57
2023-02-28T23:18:00.036Z,17.93
2023-02-28T23:20:25.949Z,15.20
2023-02-28T23:22:51.691Z,15.60
2023-02-28T23:25:18.287Z,16.60
2023-02-28T23:27:44.027Z,17.13
2023-02-28T23:30:10.243Z,18.73
2023-02-28T23:32:39.321Z,21.70
2023-02-28T23:35:07.235Z,15.43
2023-02-28T23:37:33.721Z,18.50
2023-02-28T23:40:00.097Z,21.90
2023-02-28T23:42:25.955Z,24.37
2023-02-28T23:44:51.698Z,15.47
2023-02-28T23:47:17.530Z,18.83
2023-02-28T23:49:43.257Z,19.73
2023-02-28T23:52:09.030Z,19.67
2023-02-28T23:54:34.795Z,17.87
2023-02-28T23:57:00.514Z,14.63
2023-02-28T23:59:26.234Z,18.03
